Terminal Aerodrome Forecast
Issued by NWS Charleston, WV

Current Version | Previous Version | Text Only | Print | Product List | Glossary Off
Versions: 1 2 3 4 5 6 7 8 9 10 11 12 13 14 15 16 17 18 19

000
FTUS41 KRLX 212300
TAFHTS
TAF
KHTS 212330Z 2200/2224 00000KT P6SM SCT250
     FM220500 08004KT P6SM SCT050
     FM220800 12004KT P6SM BKN035
     FM221300 14004KT P6SM BKN025
     FM221900 12004KT P6SM BKN050=

USA.gov is the U.S. government's official web portal to all federal, state and local government web resources and services.